ウシュアイア の空港の天気 - METARとTAF

ウシュアイア空港 ( SAWH / USH ) - アルゼンチン ティエラ・デル・フエゴ州、ウシュアイア
飛行場実況気象(Metar)
観測時間01/19 08:00 ART (01/19 11:00 UTC)
風向・風速南西 10m/s
視程10km以上
天気現象
全天の8割程度の雲 雲底高度 1220m
全天の4割程度の雲 雲底高度 2440m
気温12℃
湿度82%
気圧987hPa
METARSAWH 191100Z 23020KT 9999 BKN040 SCT080 12/09 Q0987
過去の天気等 Google飛行場航空写真 Wunderground天気予報

過去48時間のMETAR

飛行場予報(TAF)
発表時間: 1/19 02:00 ART (1/19 05:00 UTC)
予報対象時間: 19日3時 ART ~ 20日3時 ART
風向・風速北西 8m/s
視程10km以上
全天の4割程度の雲 雲底高度 910m
全天の4割程度の雲 雲底高度 2440m
19日12時 ART ~ 19日14時 ART に徐々に
風向・風速西南西 10m/s
天気現象弱いしゅう雨
全天の8割程度の雲 雲底高度 610m
全天を覆う雲 雲底高度 1520m
19日18時 ART ~ 19日20時 ART に徐々に
風向・風速不定 2m/s
天気現象運行に影響にある天気現象が終了
全天を覆う雲 雲底高度 610m
20日0時 ART ~ 20日2時 ART に徐々に
全天の4割程度の雲 雲底高度 910m
TAF SAWH 190500Z 1906/2006 32015KT 9999 SCT030 SCT080 TX16/1919Z TN04/2005Z
BECMG 1915/1917 25020KT -SHRA BKN020 OVC050
BECMG 1921/1923 VRB03KT NSW OVC020
BECMG 2003/2005 SCT030